LTFC

Details ICAO LTFC (ISE)
Name SULEYMAN DEMIREL
Region Turkey
Timezone Europe/Istanbul (UTC+3.0)
Plans Departing 32
Arriving 31
Stats Elevation 2,835 ft / 864 m (AMSL)
Location 37.855415° 30.368399°
Runways 1
Magnetic Variation 5.198° E
Sunrise 2018-05-27 02:41:54 UTC / 2018-05-27 05:41:54 Local
Sunset 2018-05-27 17:12:19 UTC / 2018-05-27 20:12:19 Local
Advertisement - Login to hide

Runways

ID Width Length Bearing (true) Bearing (mag) Surface Threshold Offset Overrun Length
05 148 ft / 45 m 9,856 ft / 3,004 m 49.51° 44.31° Concrete 0 ft / 0 m 190 ft / 58 m
23 148 ft / 45 m 9,856 ft / 3,004 m 229.52° 224.32° Concrete 0 ft / 0 m 190 ft / 58 m

Map

Weather


0- 5 10 15 20 25 30 35+ Temperature / ° C

Clouds and Precipitation
Forecast for 2018-05-27 12:00 UTC. Updated 3 hours ago

Ground ~20,000 ft ~40,000 ft Winds

METAR

LTFC 271350Z 07008G18KT 010V120 9999 FEW025CB SCT030 25/06 Q1012

TAF

Not found

Frequencies

Ground 121.70 MHz ISPARTA GND
Tower 119.20 MHz ISPARTA TWR
Warning: Do not use this data for real-world aviation or navigation. No guarantee of current accuracy is given.